Time;durP1;ratioP1;P1;durP2;ratioP2;P2;SDS_P1;SDS_P2;PMS_P1;PMS_P2;Temp;Humidity;BMP_temperature;BMP_pressure;BME280_temperature;BME280_humidity;BME280_pressure;Samples;Min_cycle;Max_cycle;Signal;HPM_P1;HPM_P2
2024/04/21 00:00:43;;;;;;;0.70;0.70;;;7.90;97.40;;;;;;11407740;26;20263;-77
2024/04/21 00:05:50;;;;;;;0.60;0.60;;;7.80;97.00;;;;;;11407872;26;20720;-77
2024/04/21 00:10:54;;;;;;;0.60;0.60;;;7.80;96.70;;;;;;11407698;26;20567;-76
2024/04/21 00:15:58;;;;;;;0.60;0.60;;;7.70;96.70;;;;;;11408261;25;20304;-76
2024/04/21 00:21:04;;;;;;;0.50;0.50;;;7.70;96.90;;;;;;11355229;25;20228;-77
2024/04/21 00:26:09;;;;;;;0.50;0.50;;;7.70;96.70;;;;;;11309605;25;20328;-76
2024/04/21 00:31:13;;;;;;;0.60;0.60;;;7.60;96.40;;;;;;11468853;25;20240;-76
2024/04/21 00:36:19;;;;;;;0.60;0.60;;;7.60;96.40;;;;;;11342343;25;20312;-78
2024/04/21 00:41:24;;;;;;;0.50;0.50;;;7.60;96.60;;;;;;11387444;25;20229;-77
2024/04/21 00:46:29;;;;;;;0.50;0.50;;;7.60;96.60;;;;;;11476637;25;20245;-77
2024/04/21 00:51:36;;;;;;;0.50;0.50;;;7.50;96.70;;;;;;11454352;25;20235;-79
2024/04/21 00:56:40;;;;;;;0.50;0.50;;;7.50;96.60;;;;;;11340799;25;20893;-76
2024/04/21 01:01:46;;;;;;;0.53;0.53;;;7.60;97.10;;;;;;11455698;25;20239;-79
2024/04/21 01:06:53;;;;;;;0.60;0.60;;;7.70;96.90;;;;;;11400223;25;20239;-78
2024/04/21 01:11:56;;;;;;;0.50;0.50;;;7.70;97.00;;;;;;11366466;26;20227;-77
2024/04/21 01:17:00;;;;;;;0.60;0.60;;;7.80;96.90;;;;;;11405510;26;20630;-77
2024/04/21 01:22:07;;;;;;;0.50;0.50;;;7.80;97.00;;;;;;11404617;26;20232;-77
2024/04/21 01:27:14;;;;;;;0.50;0.50;;;7.80;96.80;;;;;;11405356;25;20322;-79
2024/04/21 01:32:21;;;;;;;0.50;0.50;;;7.80;96.80;;;;;;11404790;26;20264;-79
2024/04/21 01:37:26;;;;;;;0.50;0.50;;;7.70;96.90;;;;;;11404877;26;20339;-76
2024/04/21 01:42:32;;;;;;;0.60;0.60;;;7.60;96.70;;;;;;11407374;25;20752;-77
2024/04/21 01:47:36;;;;;;;0.60;0.60;;;7.60;96.80;;;;;;11433855;25;20335;-78
2024/04/21 01:52:40;;;;;;;0.80;0.80;;;7.60;96.90;;;;;;11407180;25;20801;-78
2024/04/21 01:57:48;;;;;;;0.80;0.80;;;7.60;97.00;;;;;;11404042;25;20239;-78
2024/04/21 02:02:52;;;;;;;0.50;0.50;;;7.60;97.10;;;;;;11411654;26;20232;-79
2024/04/21 02:07:56;;;;;;;0.53;0.53;;;7.70;97.10;;;;;;11405395;25;20275;-79
2024/04/21 02:13:03;;;;;;;0.90;0.90;;;7.70;96.90;;;;;;11384185;26;20263;-79
2024/04/21 02:18:07;;;;;;;1.00;1.00;;;7.80;97.00;;;;;;11411039;26;20240;-77
2024/04/21 02:23:11;;;;;;;0.80;0.80;;;7.80;97.10;;;;;;11410218;26;20266;-78
2024/04/21 02:28:17;;;;;;;0.90;0.90;;;7.90;97.10;;;;;;11410926;25;20499;-77
2024/04/21 02:33:23;;;;;;;0.83;0.83;;;8.00;97.00;;;;;;11410371;26;20228;-77
2024/04/21 02:38:27;;;;;;;1.20;1.20;;;8.00;97.00;;;;;;11340989;26;20274;-77
2024/04/21 02:43:33;;;;;;;0.83;0.83;;;8.10;97.00;;;;;;11367792;25;20235;-77
2024/04/21 02:48:37;;;;;;;0.80;0.80;;;8.10;97.30;;;;;;11501532;25;20232;-78
2024/04/21 02:53:41;;;;;;;1.00;1.00;;;8.20;97.00;;;;;;11396956;25;20262;-76
2024/04/21 02:58:48;;;;;;;0.80;0.80;;;8.20;97.10;;;;;;11407638;26;20232;-78
2024/04/21 03:03:52;;;;;;;1.00;1.00;;;8.20;97.20;;;;;;11409407;25;20262;-77
2024/04/21 03:08:56;;;;;;;1.10;1.10;;;8.20;97.40;;;;;;11409757;26;20270;-77
2024/04/21 03:14:03;;;;;;;2.20;2.20;;;8.10;97.90;;;;;;11409841;26;20220;-78
2024/04/21 03:19:07;;;;;;;4.70;4.70;;;8.00;98.20;;;;;;11409869;26;20220;-77
2024/04/21 03:24:11;;;;;;;5.10;5.10;;;7.90;98.70;;;;;;11408762;26;20900;-78
2024/04/21 03:29:17;;;;;;;5.40;5.40;;;7.70;99.00;;;;;;11409750;26;20240;-79
2024/04/21 03:34:21;;;;;;;6.30;6.30;;;7.60;99.50;;;;;;11396033;25;20715;-80
2024/04/21 03:39:25;;;;;;;6.67;6.67;;;7.40;99.90;;;;;;11307747;26;20538;-79
2024/04/21 03:44:32;;;;;;;6.60;6.60;;;7.20;99.90;;;;;;11407487;26;20276;-80
2024/04/21 03:49:36;;;;;;;7.93;7.83;;;7.10;99.90;;;;;;11409113;25;20246;-76
2024/04/21 03:54:40;;;;;;;7.30;7.30;;;7.00;99.90;;;;;;11336380;26;20348;-78
2024/04/21 03:59:46;;;;;;;8.53;8.43;;;6.80;99.90;;;;;;11408434;26;20286;-78
2024/04/21 04:04:50;;;;;;;8.00;7.90;;;6.60;99.90;;;;;;11402490;25;20275;-77
2024/04/21 04:09:54;;;;;;;8.10;8.00;;;6.60;99.90;;;;;;11337821;26;20580;-77
2024/04/21 04:15:01;;;;;;;7.83;7.73;;;6.60;99.90;;;;;;11336956;25;20239;-77
2024/04/21 04:20:07;;;;;;;8.93;8.83;;;6.60;99.90;;;;;;11403485;25;20264;-77
2024/04/21 04:25:11;;;;;;;7.57;7.47;;;6.60;99.90;;;;;;11344107;25;20326;-76
2024/04/21 04:30:17;;;;;;;7.40;7.30;;;6.60;99.90;;;;;;11495038;25;20334;-77
2024/04/21 04:35:21;;;;;;;8.40;8.30;;;6.60;99.90;;;;;;11360762;26;20239;-77
2024/04/21 04:40:25;;;;;;;8.43;8.33;;;6.50;99.90;;;;;;11406958;26;20263;-76
2024/04/21 04:45:32;;;;;;;7.60;7.50;;;6.50;99.90;;;;;;11406078;25;20591;-75
2024/04/21 04:50:36;;;;;;;7.63;7.53;;;6.40;99.90;;;;;;11406786;26;20250;-76
2024/04/21 04:55:40;;;;;;;7.00;7.00;;;6.40;99.90;;;;;;11406198;25;20224;-77
2024/04/21 05:00:46;;;;;;;7.63;7.53;;;6.40;99.90;;;;;;11405601;26;20270;-76
2024/04/21 05:05:50;;;;;;;8.13;8.03;;;6.40;99.90;;;;;;11397293;25;20572;-77
2024/04/21 05:10:54;;;;;;;6.80;6.80;;;6.40;99.90;;;;;;11339318;26;20239;-78
2024/04/21 05:16:01;;;;;;;6.90;6.90;;;6.40;99.90;;;;;;11406044;26;20277;-77
2024/04/21 05:21:05;;;;;;;6.70;6.70;;;6.40;99.90;;;;;;11397363;26;20232;-77
2024/04/21 05:26:09;;;;;;;7.23;7.20;;;6.40;99.90;;;;;;11407172;25;20633;-76
2024/04/21 05:31:16;;;;;;;7.17;7.17;;;6.30;99.90;;;;;;11380013;26;20339;-77
2024/04/21 05:36:20;;;;;;;7.23;7.20;;;6.30;99.90;;;;;;11373721;25;20243;-77
2024/04/21 05:41:24;;;;;;;6.50;6.50;;;6.20;99.90;;;;;;11379416;26;20252;-77
2024/04/21 05:46:31;;;;;;;6.83;6.83;;;6.30;99.90;;;;;;11411871;26;20240;-76
2024/04/21 05:51:35;;;;;;;6.60;6.60;;;6.30;99.90;;;;;;11410779;26;20266;-75
2024/04/21 05:56:39;;;;;;;6.73;6.73;;;6.30;99.90;;;;;;11411371;25;20244;-76
2024/04/21 06:01:46;;;;;;;6.40;6.40;;;6.30;99.90;;;;;;11412272;25;20319;-77
2024/04/21 06:06:50;;;;;;;7.47;7.37;;;6.40;99.90;;;;;;11409327;26;20243;-77
2024/04/21 06:11:55;;;;;;;5.97;5.97;;;6.40;99.90;;;;;;11405690;26;21282;-76
2024/04/21 06:17:01;;;;;;;6.10;6.10;;;6.50;99.90;;;;;;11411082;25;21092;-73
2024/04/21 06:22:05;;;;;;;6.90;6.90;;;6.60;99.90;;;;;;11403323;26;20262;-76
2024/04/21 06:27:09;;;;;;;5.43;5.43;;;6.70;99.90;;;;;;11411008;25;20342;-76
2024/04/21 06:32:16;;;;;;;5.83;5.83;;;6.90;99.90;;;;;;11411161;26;20240;-78
2024/04/21 06:37:20;;;;;;;5.70;5.70;;;7.00;99.90;;;;;;11405018;25;20229;-76
2024/04/21 06:42:24;;;;;;;4.80;4.80;;;7.00;99.90;;;;;;11367361;26;20765;-75
2024/04/21 06:47:30;;;;;;;4.50;4.50;;;7.10;99.90;;;;;;11409997;25;20236;-75
2024/04/21 06:52:34;;;;;;;4.70;4.70;;;7.10;99.90;;;;;;11386566;25;20246;-75
2024/04/21 06:57:40;;;;;;;4.10;4.10;;;7.10;99.90;;;;;;11503078;25;20219;-75
2024/04/21 07:02:47;;;;;;;3.30;3.30;;;7.20;99.90;;;;;;11384420;25;20234;-75
2024/04/21 07:07:51;;;;;;;4.73;4.73;;;7.30;99.90;;;;;;11413715;25;21039;-76
2024/04/21 07:12:55;;;;;;;3.50;3.50;;;7.30;99.90;;;;;;11408778;26;20235;-74
2024/04/21 07:18:02;;;;;;;3.40;3.40;;;7.50;99.90;;;;;;11409304;25;20331;-76
2024/04/21 07:23:06;;;;;;;3.57;3.57;;;7.50;99.90;;;;;;11399202;26;20291;-79
2024/04/21 07:28:10;;;;;;;3.00;3.00;;;7.50;99.90;;;;;;11408821;25;20756;-78
2024/04/21 07:33:16;;;;;;;2.90;2.90;;;7.60;99.90;;;;;;11408924;26;20248;-78
2024/04/21 07:38:20;;;;;;;2.87;2.87;;;7.70;99.90;;;;;;11408692;25;20232;-76
2024/04/21 07:43:26;;;;;;;2.60;2.60;;;7.80;99.90;;;;;;11408460;26;20319;-76
2024/04/21 07:48:32;;;;;;;2.50;2.50;;;7.90;99.90;;;;;;11407865;25;20347;-75
2024/04/21 07:53:36;;;;;;;2.30;2.30;;;8.10;99.90;;;;;;11407422;26;20634;-76
2024/04/21 07:58:41;;;;;;;2.10;2.10;;;8.20;99.90;;;;;;11408744;26;20282;-75
2024/04/21 08:03:47;;;;;;;1.90;1.90;;;8.40;99.90;;;;;;11409036;26;20259;-76
2024/04/21 08:08:51;;;;;;;2.20;2.20;;;8.60;99.90;;;;;;11408216;26;20236;-75
2024/04/21 08:13:55;;;;;;;1.97;1.97;;;8.80;99.90;;;;;;11408372;26;20224;-75
2024/04/21 08:19:03;;;;;;;2.30;2.30;;;8.80;99.90;;;;;;11408177;26;20243;-73
2024/04/21 08:24:08;;;;;;;2.43;2.43;;;8.70;99.90;;;;;;11407539;25;20829;-76
2024/04/21 08:29:12;;;;;;;1.80;1.80;;;8.60;99.90;;;;;;11400022;26;20228;-76
2024/04/21 08:34:20;;;;;;;1.83;1.83;;;8.50;99.90;;;;;;11402307;25;20256;-74
2024/04/21 08:39:24;;;;;;;1.60;1.60;;;8.40;99.90;;;;;;11337501;26;20327;-76
2024/04/21 08:44:29;;;;;;;1.50;1.50;;;8.40;99.90;;;;;;11406201;26;20243;-76
2024/04/21 08:49:37;;;;;;;1.30;1.30;;;8.40;99.90;;;;;;11404991;26;20236;-75
2024/04/21 08:54:41;;;;;;;1.20;1.20;;;8.50;99.90;;;;;;11399639;26;20230;-76
2024/04/21 08:59:45;;;;;;;1.33;1.33;;;8.80;99.90;;;;;;11371524;26;20638;-74
2024/04/21 09:04:52;;;;;;;1.30;1.30;;;9.00;99.90;;;;;;11405125;26;20718;-77
2024/04/21 09:09:56;;;;;;;0.80;0.80;;;9.30;99.90;;;;;;11406385;26;20224;-75
2024/04/21 09:15:00;;;;;;;1.00;1.00;;;9.40;99.60;;;;;;11312706;25;20331;-75
2024/04/21 09:20:08;;;;;;;1.10;1.10;;;9.60;98.40;;;;;;11398228;25;20228;-75
2024/04/21 09:25:12;;;;;;;0.80;0.80;;;9.70;97.60;;;;;;11483734;25;20244;-74
2024/04/21 09:30:17;;;;;;;0.70;0.70;;;9.50;96.80;;;;;;11398499;25;20237;-76
2024/04/21 09:35:23;;;;;;;0.80;0.80;;;9.30;97.00;;;;;;11459000;25;20748;-75
2024/04/21 09:40:28;;;;;;;0.80;0.80;;;9.20;97.90;;;;;;11398349;25;20241;-77
2024/04/21 09:45:33;;;;;;;0.90;0.90;;;9.30;98.80;;;;;;11493059;25;20335;-75
2024/04/21 09:50:42;;;;;;;0.60;0.60;;;9.50;98.80;;;;;;11390311;25;20297;-75
2024/04/21 09:55:49;;;;;;;0.80;0.80;;;9.80;98.70;;;;;;11492826;25;20791;-75
2024/04/21 10:00:55;;;;;;;0.50;0.50;;;9.80;98.20;;;;;;11365508;25;20333;-74
2024/04/21 10:06:02;;;;;;;0.60;0.60;;;9.80;97.00;;;;;;11352339;25;20621;-75
2024/04/21 10:11:06;;;;;;;0.50;0.50;;;9.80;97.10;;;;;;11336951;26;20705;-75
2024/04/21 10:16:11;;;;;;;0.60;0.60;;;10.00;96.00;;;;;;11409982;26;20236;-76
2024/04/21 10:21:18;;;;;;;0.40;0.40;;;10.20;95.40;;;;;;11377116;26;20826;-74
2024/04/21 10:26:22;;;;;;;0.60;0.60;;;10.40;93.80;;;;;;11404683;25;20279;-77
2024/04/21 10:31:29;;;;;;;0.40;0.40;;;10.50;92.80;;;;;;11410275;26;20259;-77
2024/04/21 10:36:43;;;;;;;0.60;0.60;;;10.40;93.00;;;;;;11410777;26;20232;-75
2024/04/21 10:41:47;;;;;;;0.50;0.50;;;10.30;93.40;;;;;;11410494;26;20228;-75
2024/04/21 10:46:51;;;;;;;0.40;0.40;;;10.40;93.40;;;;;;11408719;25;20575;-76
2024/04/21 10:51:58;;;;;;;0.50;0.50;;;10.60;92.40;;;;;;11408484;26;20260;-76
2024/04/21 10:57:05;;;;;;;0.50;0.50;;;11.00;91.00;;;;;;11409994;26;20328;-76
2024/04/21 11:02:09;;;;;;;0.50;0.50;;;11.30;91.50;;;;;;11402058;26;20239;-76
2024/04/21 11:07:16;;;;;;;0.40;0.40;;;11.50;90.80;;;;;;11397185;25;20244;-75
2024/04/21 11:12:21;;;;;;;0.40;0.40;;;11.30;90.60;;;;;;11358509;26;20228;-75
2024/04/21 11:17:25;;;;;;;0.50;0.50;;;11.40;90.50;;;;;;11377066;26;20285;-77
2024/04/21 11:22:32;;;;;;;0.50;0.50;;;11.50;90.30;;;;;;11403954;26;20232;-76
2024/04/21 11:27:37;;;;;;;0.40;0.40;;;11.30;87.90;;;;;;11404927;25;20260;-74
2024/04/21 11:32:41;;;;;;;0.50;0.50;;;11.10;89.30;;;;;;11409286;25;20278;-76
2024/04/21 11:37:48;;;;;;;0.40;0.40;;;10.90;90.00;;;;;;11376412;26;20300;-76
2024/04/21 11:42:52;;;;;;;0.50;0.50;;;10.70;90.10;;;;;;11401844;25;20234;-76
2024/04/21 11:47:56;;;;;;;0.40;0.40;;;10.50;91.20;;;;;;11489698;25;20280;-76
2024/04/21 11:53:03;;;;;;;0.40;0.40;;;10.50;91.70;;;;;;11404989;25;20238;-75
2024/04/21 11:58:07;;;;;;;0.50;0.50;;;10.60;92.50;;;;;;11475624;25;20248;-75
2024/04/21 12:03:11;;;;;;;0.60;0.60;;;10.70;91.80;;;;;;11402337;25;20227;-75
2024/04/21 12:08:18;;;;;;;0.50;0.50;;;11.00;91.90;;;;;;11390495;25;20767;-76
2024/04/21 12:13:22;;;;;;;0.40;0.40;;;11.00;90.40;;;;;;11370133;26;20258;-76
2024/04/21 12:18:26;;;;;;;0.60;0.60;;;10.90;90.20;;;;;;11407527;26;20828;-74
2024/04/21 12:23:32;;;;;;;0.60;0.60;;;10.60;90.70;;;;;;11374022;26;20235;-75
2024/04/21 12:28:36;;;;;;;0.57;0.57;;;10.50;90.20;;;;;;11407122;25;20275;-75
2024/04/21 12:33:40;;;;;;;0.40;0.40;;;10.40;90.60;;;;;;11407496;26;20626;-75
2024/04/21 12:38:47;;;;;;;0.60;0.60;;;10.40;90.40;;;;;;11406077;26;20290;-75
2024/04/21 12:43:51;;;;;;;0.60;0.60;;;10.60;91.10;;;;;;11406695;25;20749;-75
2024/04/21 12:48:56;;;;;;;0.50;0.50;;;10.90;91.20;;;;;;11406494;26;20224;-76
2024/04/21 12:54:02;;;;;;;0.50;0.50;;;11.20;91.50;;;;;;11405548;25;20259;-74
2024/04/21 12:59:06;;;;;;;0.50;0.50;;;11.40;89.30;;;;;;11402531;26;20665;-75
2024/04/21 13:04:10;;;;;;;0.40;0.40;;;11.40;90.70;;;;;;11401485;26;20240;-74
2024/04/21 13:09:17;;;;;;;0.50;0.50;;;11.50;92.30;;;;;;11390369;25;20233;-76
2024/04/21 13:14:21;;;;;;;0.60;0.60;;;11.70;90.90;;;;;;11379327;26;20270;-75
2024/04/21 13:19:27;;;;;;;0.60;0.60;;;11.70;89.50;;;;;;11405248;26;20265;-75
2024/04/21 13:24:34;;;;;;;0.50;0.50;;;11.70;88.40;;;;;;11405149;25;20751;-75
2024/04/21 13:29:38;;;;;;;0.40;0.40;;;11.60;89.80;;;;;;11365577;26;20323;-74
2024/04/21 13:34:42;;;;;;;0.60;0.60;;;11.70;88.70;;;;;;11391979;26;21092;-75
2024/04/21 13:39:48;;;;;;;0.80;0.80;;;11.70;86.60;;;;;;11341225;26;20923;-75
2024/04/21 13:44:52;;;;;;;0.70;0.70;;;11.70;87.80;;;;;;11403847;26;20300;-76
2024/04/21 13:49:56;;;;;;;0.80;0.80;;;11.80;84.60;;;;;;11409368;26;20248;-77
2024/04/21 13:55:03;;;;;;;0.70;0.70;;;11.80;85.40;;;;;;11410084;25;20384;-76
2024/04/21 14:00:08;;;;;;;0.80;0.80;;;11.80;85.90;;;;;;11412473;25;20637;-75
2024/04/21 14:05:12;;;;;;;0.77;0.77;;;11.80;83.60;;;;;;11410481;26;20228;-75
2024/04/21 14:10:19;;;;;;;0.70;0.70;;;11.80;83.10;;;;;;11411520;26;20228;-75
2024/04/21 14:15:23;;;;;;;0.60;0.60;;;11.70;84.00;;;;;;11411643;25;20579;-76
2024/04/21 14:20:28;;;;;;;0.60;0.60;;;11.70;83.90;;;;;;11410712;26;20318;-77
2024/04/21 14:25:34;;;;;;;0.60;0.60;;;11.70;86.00;;;;;;11410859;26;20266;-73
2024/04/21 14:30:38;;;;;;;0.60;0.60;;;11.70;87.20;;;;;;11404109;26;20240;-75
2024/04/21 14:35:43;;;;;;;0.70;0.70;;;11.60;88.80;;;;;;11398014;26;20276;-75
2024/04/21 14:40:49;;;;;;;0.80;0.80;;;11.70;89.00;;;;;;11316669;26;20323;-74
2024/04/21 14:45:55;;;;;;;0.80;0.80;;;11.60;89.70;;;;;;11409827;26;20331;-75
2024/04/21 14:50:59;;;;;;;0.60;0.60;;;11.60;89.30;;;;;;11409871;26;20236;-77
2024/04/21 14:56:08;;;;;;;0.60;0.60;;;11.60;89.50;;;;;;11408740;25;20729;-75
2024/04/21 15:01:12;;;;;;;0.60;0.60;;;11.50;90.00;;;;;;11409035;26;20315;-74
2024/04/21 15:06:17;;;;;;;0.70;0.70;;;11.40;89.30;;;;;;11363488;26;20241;-76
2024/04/21 15:11:25;;;;;;;0.60;0.60;;;11.40;90.00;;;;;;11376165;25;20240;-76
2024/04/21 15:16:30;;;;;;;0.70;0.70;;;11.30;90.10;;;;;;11394734;25;20265;-77
2024/04/21 15:21:34;;;;;;;0.60;0.60;;;11.20;90.10;;;;;;11361161;25;20232;-76
2024/04/21 15:26:41;;;;;;;0.80;0.80;;;11.00;90.20;;;;;;11394558;26;20237;-76
2024/04/21 15:31:45;;;;;;;0.70;0.70;;;10.90;90.70;;;;;;11350076;25;20327;-76
2024/04/21 15:36:49;;;;;;;0.90;0.90;;;10.70;90.80;;;;;;11394338;25;20348;-75
2024/04/21 15:41:56;;;;;;;0.60;0.60;;;10.70;90.70;;;;;;11347055;26;20632;-75
2024/04/21 15:47:00;;;;;;;0.60;0.60;;;10.60;91.50;;;;;;11408479;26;20240;-77
2024/04/21 15:52:04;;;;;;;0.70;0.70;;;10.60;91.40;;;;;;11408182;26;20236;-76
2024/04/21 15:57:10;;;;;;;0.80;0.80;;;10.60;91.60;;;;;;11376185;26;20243;-76
2024/04/21 16:02:16;;;;;;;0.93;0.93;;;10.60;92.00;;;;;;11408461;26;20237;-76
2024/04/21 16:07:20;;;;;;;0.80;0.80;;;10.60;91.70;;;;;;11407437;26;20243;-75
2024/04/21 16:12:27;;;;;;;0.70;0.70;;;10.60;92.00;;;;;;11406722;26;20262;-77
2024/04/21 16:17:31;;;;;;;0.70;0.70;;;10.50;91.90;;;;;;11451344;25;20240;-79
2024/04/21 16:22:35;;;;;;;0.70;0.70;;;10.40;92.30;;;;;;11382029;26;20236;-75
2024/04/21 16:27:42;;;;;;;0.80;0.80;;;10.40;92.40;;;;;;11404242;25;20235;-76
2024/04/21 16:32:46;;;;;;;0.73;0.73;;;10.20;92.30;;;;;;11407681;26;20276;-75
2024/04/21 16:37:50;;;;;;;0.50;0.50;;;10.10;92.10;;;;;;11394365;26;20236;-76
2024/04/21 16:42:58;;;;;;;0.70;0.70;;;9.90;93.10;;;;;;11407248;26;20752;-76
2024/04/21 16:48:07;;;;;;;0.60;0.60;;;9.70;94.20;;;;;;11406477;25;20575;-75
2024/04/21 16:53:12;;;;;;;0.60;0.60;;;9.50;94.60;;;;;;11405014;26;20300;-75
2024/04/21 16:58:22;;;;;;;0.70;0.70;;;9.40;95.10;;;;;;11407447;25;20262;-75
2024/04/21 17:03:26;;;;;;;0.60;0.60;;;9.30;94.80;;;;;;11386424;25;20569;-76
2024/04/21 17:08:35;;;;;;;0.70;0.70;;;9.10;95.20;;;;;;11346633;25;20271;-76
2024/04/21 17:13:43;;;;;;;0.80;0.80;;;9.00;96.50;;;;;;11390922;25;20239;-75
2024/04/21 17:18:48;;;;;;;0.70;0.70;;;8.90;96.20;;;;;;11405513;25;20231;-76
2024/04/21 17:23:52;;;;;;;0.60;0.60;;;8.80;95.60;;;;;;11409326;25;20236;-76
2024/04/21 17:28:58;;;;;;;0.70;0.70;;;8.80;95.80;;;;;;11391569;25;20233;-73
2024/04/21 17:34:02;;;;;;;0.60;0.60;;;8.70;96.70;;;;;;11365538;26;20543;-76
2024/04/21 17:39:07;;;;;;;0.60;0.60;;;8.60;96.80;;;;;;11392808;25;20233;-77
2024/04/21 17:44:14;;;;;;;0.50;0.50;;;8.60;97.70;;;;;;11358276;25;20588;-75
2024/04/21 17:49:18;;;;;;;0.80;0.80;;;8.50;98.00;;;;;;11365691;26;20236;-74
2024/04/21 17:54:23;;;;;;;0.70;0.70;;;8.50;99.00;;;;;;11396432;25;20252;-75
2024/04/21 17:59:30;;;;;;;0.50;0.50;;;8.40;99.90;;;;;;11403408;25;20237;-75
2024/04/21 18:04:34;;;;;;;0.67;0.67;;;8.40;98.70;;;;;;11448494;25;20258;-75
2024/04/21 18:09:38;;;;;;;0.73;0.73;;;8.30;98.60;;;;;;11354197;26;20245;-75
2024/04/21 18:14:45;;;;;;;0.70;0.70;;;8.30;98.70;;;;;;11377972;25;20232;-73
2024/04/21 18:19:49;;;;;;;0.67;0.67;;;8.30;99.10;;;;;;11405555;26;20225;-74
2024/04/21 18:24:53;;;;;;;0.73;0.73;;;8.30;99.30;;;;;;11405620;26;20932;-74
2024/04/21 18:30:00;;;;;;;0.77;0.77;;;8.30;99.60;;;;;;11405658;26;20232;-74
2024/04/21 18:35:04;;;;;;;0.60;0.60;;;8.30;99.80;;;;;;11404456;25;20239;-75
2024/04/21 18:40:09;;;;;;;0.70;0.70;;;8.30;99.40;;;;;;11397560;26;20243;-74
2024/04/21 18:45:16;;;;;;;0.60;0.60;;;8.40;99.90;;;;;;11404701;25;20240;-74
2024/04/21 18:50:20;;;;;;;0.70;0.70;;;8.40;99.90;;;;;;11382833;25;20266;-75
2024/04/21 18:55:24;;;;;;;0.60;0.60;;;8.40;99.90;;;;;;11390855;26;20733;-73
2024/04/21 19:00:33;;;;;;;0.60;0.60;;;8.40;99.90;;;;;;11403662;26;20235;-73
2024/04/21 19:05:37;;;;;;;0.80;0.80;;;8.30;99.90;;;;;;11351252;25;20252;-74
2024/04/21 19:10:42;;;;;;;0.87;0.87;;;8.20;99.90;;;;;;11377594;25;20320;-74
2024/04/21 19:15:50;;;;;;;0.77;0.77;;;8.20;99.90;;;;;;11410033;25;20258;-75
2024/04/21 19:20:55;;;;;;;1.00;1.00;;;8.20;99.90;;;;;;11361933;25;20324;-73
2024/04/21 19:25:59;;;;;;;0.70;0.70;;;8.10;99.90;;;;;;11345128;26;20335;-74
2024/04/21 19:31:06;;;;;;;0.80;0.80;;;8.10;99.90;;;;;;11380643;25;20261;-76
2024/04/21 19:36:10;;;;;;;0.80;0.80;;;8.10;99.90;;;;;;11397215;25;20264;-76
2024/04/21 19:41:14;;;;;;;0.90;0.90;;;8.10;99.90;;;;;;11346374;26;20823;-75
2024/04/21 19:46:21;;;;;;;0.90;0.90;;;8.10;99.90;;;;;;11353250;25;20340;-75
2024/04/21 19:51:29;;;;;;;0.90;0.90;;;8.10;99.90;;;;;;11381800;25;20265;-73
2024/04/21 19:56:33;;;;;;;0.80;0.80;;;8.10;99.90;;;;;;11390288;25;20240;-75
2024/04/21 20:01:42;;;;;;;0.90;0.90;;;8.20;99.90;;;;;;11382811;25;20235;-75
2024/04/21 20:06:46;;;;;;;0.73;0.73;;;8.10;99.90;;;;;;11384867;25;20280;-73
2024/04/21 20:11:50;;;;;;;0.80;0.80;;;8.10;99.90;;;;;;11355303;26;20272;-77
2024/04/21 20:22:17;;;;;;;0.80;0.80;;;8.00;99.90;;;;;;11353292;25;20328;-74
2024/04/21 20:27:21;;;;;;;1.00;1.00;;;8.00;99.90;;;;;;11392227;25;20238;-76
2024/04/21 20:32:28;;;;;;;0.80;0.80;;;8.00;99.90;;;;;;11463338;25;20657;-76
2024/04/21 20:37:32;;;;;;;1.10;1.10;;;7.90;99.90;;;;;;11393120;26;20277;-76
2024/04/21 20:42:36;;;;;;;1.10;1.10;;;7.80;99.90;;;;;;11407523;25;20281;-75
2024/04/21 20:47:42;;;;;;;1.20;1.20;;;7.80;99.90;;;;;;11397687;25;20239;-74
2024/04/21 20:52:46;;;;;;;0.90;0.90;;;7.80;99.90;;;;;;11392835;25;20791;-75
2024/04/21 20:57:50;;;;;;;1.10;1.10;;;7.80;99.90;;;;;;11324017;26;20721;-75
2024/04/21 21:02:57;;;;;;;0.90;0.90;;;7.70;99.90;;;;;;11406244;26;20228;-76
2024/04/21 21:08:01;;;;;;;0.83;0.83;;;7.80;99.90;;;;;;11372269;26;20231;-77
2024/04/21 21:13:07;;;;;;;1.10;1.10;;;7.80;99.90;;;;;;11406412;25;20319;-78
2024/04/21 21:18:14;;;;;;;0.83;0.83;;;7.80;99.90;;;;;;11411410;25;20731;-74
2024/04/21 21:23:18;;;;;;;1.10;1.10;;;7.80;99.90;;;;;;11448775;25;20614;-76
2024/04/21 21:28:23;;;;;;;1.00;1.00;;;7.90;99.90;;;;;;11390713;25;20242;-76
2024/04/21 21:33:30;;;;;;;0.60;0.60;;;7.90;99.90;;;;;;11446997;25;20324;-76
2024/04/21 21:38:39;;;;;;;0.80;0.80;;;7.90;99.90;;;;;;11391133;25;20269;-76
2024/04/21 21:43:43;;;;;;;0.70;0.70;;;7.90;99.90;;;;;;11440181;25;20257;-74
2024/04/21 21:48:50;;;;;;;0.90;0.90;;;7.90;99.90;;;;;;11297412;26;20241;-75
2024/04/21 21:53:54;;;;;;;0.60;0.60;;;7.80;99.90;;;;;;11328667;26;20651;-76
2024/04/21 21:58:58;;;;;;;0.80;0.80;;;7.80;99.90;;;;;;11326908;26;20332;-75
2024/04/21 22:04:05;;;;;;;0.60;0.60;;;7.90;99.90;;;;;;11320468;26;20241;-74
2024/04/21 22:09:09;;;;;;;0.80;0.80;;;7.90;99.90;;;;;;11330200;26;20268;-75
2024/04/21 22:14:14;;;;;;;0.70;0.70;;;7.80;99.90;;;;;;11336149;26;20233;-75
2024/04/21 22:19:20;;;;;;;0.70;0.70;;;7.90;99.90;;;;;;11333780;26;20821;-75
2024/04/21 22:24:24;;;;;;;0.87;0.87;;;7.80;99.90;;;;;;11334999;26;20332;-76
2024/04/21 22:29:28;;;;;;;0.70;0.70;;;7.80;99.90;;;;;;11334996;26;20237;-77
2024/04/21 22:34:35;;;;;;;0.80;0.80;;;7.70;99.90;;;;;;11335612;26;20233;-75
2024/04/21 22:39:39;;;;;;;1.00;1.00;;;7.70;99.90;;;;;;11335108;26;20765;-75
2024/04/21 22:44:43;;;;;;;0.80;0.80;;;7.80;99.90;;;;;;11335039;26;20332;-75
2024/04/21 22:49:53;;;;;;;0.70;0.70;;;7.80;99.90;;;;;;11334521;26;20229;-75
2024/04/21 22:54:57;;;;;;;0.70;0.70;;;7.80;99.90;;;;;;11334651;26;20241;-75
2024/04/21 23:00:01;;;;;;;0.90;0.90;;;7.80;99.90;;;;;;11333055;26;20237;-75
2024/04/21 23:05:09;;;;;;;0.70;0.70;;;7.80;99.90;;;;;;11334403;26;20305;-75
2024/04/21 23:10:13;;;;;;;0.70;0.70;;;7.80;99.90;;;;;;11331416;26;20727;-75
2024/04/21 23:15:17;;;;;;;0.60;0.60;;;7.80;99.90;;;;;;11334216;26;20244;-76
2024/04/21 23:20:23;;;;;;;1.07;1.07;;;7.80;99.90;;;;;;11332512;26;20232;-76
2024/04/21 23:25:27;;;;;;;0.70;0.70;;;7.90;99.90;;;;;;11333756;26;20287;-75
2024/04/21 23:30:32;;;;;;;0.50;0.50;;;7.90;99.90;;;;;;11333194;26;20264;-75
2024/04/21 23:35:38;;;;;;;0.70;0.70;;;7.80;99.90;;;;;;11333424;26;20241;-75
2024/04/21 23:40:43;;;;;;;0.80;0.80;;;7.80;99.90;;;;;;11324450;26;20259;-75
2024/04/21 23:45:46;;;;;;;0.53;0.53;;;7.80;99.90;;;;;;11332356;26;20241;-75
2024/04/21 23:50:53;;;;;;;0.70;0.70;;;7.80;99.90;;;;;;11332203;26;20228;-76
2024/04/21 23:55:57;;;;;;;0.57;0.57;;;7.80;99.90;;;;;;11332289;26;20274;-76
